sensor_id;sensor_type;location;lat;lon;timestamp;pressure;altitude;pressure_sealevel;temperature;humidity
1077;BME280;64114;48.726;9.370;2023-02-17T00:01:11;99639.53;;;9.33;100.00
1077;BME280;64114;48.726;9.370;2023-02-17T00:03:41;99638.88;;;9.41;100.00
1077;BME280;64114;48.726;9.370;2023-02-17T00:06:10;99634.09;;;9.55;100.00
1077;BME280;64114;48.726;9.370;2023-02-17T00:08:38;99637.28;;;9.46;100.00
1077;BME280;64114;48.726;9.370;2023-02-17T00:11:05;99631.78;;;9.64;99.94
1077;BME280;64114;48.726;9.370;2023-02-17T00:13:33;99632.41;;;9.55;96.57
1077;BME280;64114;48.726;9.370;2023-02-17T00:16:05;99627.56;;;9.66;90.03
1077;BME280;64114;48.726;9.370;2023-02-17T00:18:34;99629.75;;;9.52;97.37
1077;BME280;64114;48.726;9.370;2023-02-17T00:21:12;99627.69;;;9.72;94.91
1077;BME280;64114;48.726;9.370;2023-02-17T00:23:41;99622.97;;;9.54;94.21
1077;BME280;64114;48.726;9.370;2023-02-17T00:26:08;99623.78;;;9.51;92.76
1077;BME280;64114;48.726;9.370;2023-02-17T00:28:37;99623.78;;;9.51;93.49
1077;BME280;64114;48.726;9.370;2023-02-17T00:31:05;99620.28;;;9.48;93.35
1077;BME280;64114;48.726;9.370;2023-02-17T00:33:34;99606.44;;;9.76;92.18
1077;BME280;64114;48.726;9.370;2023-02-17T00:36:04;99619.88;;;9.68;92.54
1077;BME280;64114;48.726;9.370;2023-02-17T00:38:34;99612.91;;;9.60;93.63
1077;BME280;64114;48.726;9.370;2023-02-17T00:41:02;99634.19;;;9.59;94.77
1077;BME280;64114;48.726;9.370;2023-02-17T00:43:30;99624.19;;;9.69;94.00
1077;BME280;64114;48.726;9.370;2023-02-17T00:45:58;99623.41;;;9.71;84.83
1077;BME280;64114;48.726;9.370;2023-02-17T00:48:26;99620.88;;;9.73;85.66
1077;BME280;64114;48.726;9.370;2023-02-17T00:50:54;99613.94;;;9.69;85.88
1077;BME280;64114;48.726;9.370;2023-02-17T00:53:22;99620.91;;;9.74;82.46
1077;BME280;64114;48.726;9.370;2023-02-17T00:55:51;99618.28;;;9.71;84.47
1077;BME280;64114;48.726;9.370;2023-02-17T00:58:19;99616.72;;;9.78;84.15
1077;BME280;64114;48.726;9.370;2023-02-17T01:00:46;99619.59;;;9.92;81.91
1077;BME280;64114;48.726;9.370;2023-02-17T01:03:14;99616.91;;;9.86;83.83
1077;BME280;64114;48.726;9.370;2023-02-17T01:05:44;99623.69;;;9.84;83.18
1077;BME280;64114;48.726;9.370;2023-02-17T01:08:14;99617.63;;;9.80;83.85
1077;BME280;64114;48.726;9.370;2023-02-17T01:10:44;99625.28;;;9.78;83.96
1077;BME280;64114;48.726;9.370;2023-02-17T01:13:15;99587.88;;;9.48;85.11
1077;BME280;64114;48.726;9.370;2023-02-17T01:15:45;99615.09;;;9.82;81.28
1077;BME280;64114;48.726;9.370;2023-02-17T01:18:15;99615.19;;;9.85;85.75
1077;BME280;64114;48.726;9.370;2023-02-17T01:20:44;99613.41;;;9.82;85.43
1077;BME280;64114;48.726;9.370;2023-02-17T01:23:13;99604.66;;;9.72;85.53
1077;BME280;64114;48.726;9.370;2023-02-17T01:25:43;99575.78;;;9.43;87.14
1077;BME280;64114;48.726;9.370;2023-02-17T01:28:15;99600.97;;;9.61;87.62
1077;BME280;64114;48.726;9.370;2023-02-17T01:30:45;99586.38;;;9.58;86.17
1077;BME280;64114;48.726;9.370;2023-02-17T01:33:13;99592.69;;;9.71;83.62
1077;BME280;64114;48.726;9.370;2023-02-17T01:35:41;99598.69;;;9.73;81.26
1077;BME280;64114;48.726;9.370;2023-02-17T01:38:11;99591.03;;;9.75;81.16
1077;BME280;64114;48.726;9.370;2023-02-17T01:40:45;99592.91;;;9.82;79.65
1077;BME280;64114;48.726;9.370;2023-02-17T01:43:15;99587.84;;;9.85;76.30
1077;BME280;64114;48.726;9.370;2023-02-17T01:45:47;99584.03;;;10.06;75.71
1077;BME280;64114;48.726;9.370;2023-02-17T01:48:17;99574.84;;;10.16;73.39
1077;BME280;64114;48.726;9.370;2023-02-17T01:50:52;99578.22;;;10.56;70.35
1077;BME280;64114;48.726;9.370;2023-02-17T01:53:22;99571.38;;;10.53;71.17
1077;BME280;64114;48.726;9.370;2023-02-17T01:55:52;99572.06;;;10.48;69.74
1077;BME280;64114;48.726;9.370;2023-02-17T01:58:23;99574.69;;;10.49;69.39
1077;BME280;64114;48.726;9.370;2023-02-17T02:00:52;99576.84;;;10.72;68.18
1077;BME280;64114;48.726;9.370;2023-02-17T02:03:23;99563.53;;;10.92;66.72
1077;BME280;64114;48.726;9.370;2023-02-17T02:05:51;99560.91;;;10.90;67.86
1077;BME280;64114;48.726;9.370;2023-02-17T02:08:19;99557.38;;;10.83;68.83
1077;BME280;64114;48.726;9.370;2023-02-17T02:10:47;99558.13;;;10.78;68.85
1077;BME280;64114;48.726;9.370;2023-02-17T02:13:15;99556.94;;;10.60;69.94
1077;BME280;64114;48.726;9.370;2023-02-17T02:15:47;99549.41;;;10.68;70.33
1077;BME280;64114;48.726;9.370;2023-02-17T02:18:27;99547.47;;;10.56;71.41
1077;BME280;64114;48.726;9.370;2023-02-17T02:24:12;99543.34;;;10.64;68.35
1077;BME280;64114;48.726;9.370;2023-02-17T02:27:07;99555.16;;;10.54;70.36
1077;BME280;64114;48.726;9.370;2023-02-17T02:32:55;99554.19;;;10.49;73.11
1077;BME280;64114;48.726;9.370;2023-02-17T02:35:31;99547.91;;;10.35;74.18
1077;BME280;64114;48.726;9.370;2023-02-17T02:38:05;99546.09;;;10.31;74.22
1077;BME280;64114;48.726;9.370;2023-02-17T02:40:40;99548.44;;;10.20;75.49
1077;BME280;64114;48.726;9.370;2023-02-17T02:43:12;99541.50;;;10.14;74.97
1077;BME280;64114;48.726;9.370;2023-02-17T02:45:41;99540.50;;;10.07;76.73
1077;BME280;64114;48.726;9.370;2023-02-17T02:48:12;99542.22;;;10.07;73.74
1077;BME280;64114;48.726;9.370;2023-02-17T02:50:53;99536.63;;;10.27;75.00
1077;BME280;64114;48.726;9.370;2023-02-17T02:56:37;99540.34;;;10.43;74.66
1077;BME280;64114;48.726;9.370;2023-02-17T02:59:16;99547.78;;;10.30;75.16
1077;BME280;64114;48.726;9.370;2023-02-17T03:01:52;99533.97;;;10.22;72.97
1077;BME280;64114;48.726;9.370;2023-02-17T03:04:29;99538.06;;;10.14;72.80
1077;BME280;64114;48.726;9.370;2023-02-17T03:07:07;99479.19;;;9.72;73.21
1077;BME280;64114;48.726;9.370;2023-02-17T03:09:35;99538.06;;;10.12;72.86
1077;BME280;64114;48.726;9.370;2023-02-17T03:12:05;99536.56;;;10.23;72.52
1077;BME280;64114;48.726;9.370;2023-02-17T03:14:35;99535.63;;;10.18;73.84
1077;BME280;64114;48.726;9.370;2023-02-17T03:17:05;99524.41;;;10.13;75.58
1077;BME280;64114;48.726;9.370;2023-02-17T03:19:34;99525.38;;;10.18;74.68
1077;BME280;64114;48.726;9.370;2023-02-17T03:22:06;99527.50;;;10.41;74.49
1077;BME280;64114;48.726;9.370;2023-02-17T03:24:36;99520.66;;;10.40;73.69
1077;BME280;64114;48.726;9.370;2023-02-17T03:27:06;99519.47;;;10.22;77.44
1077;BME280;64114;48.726;9.370;2023-02-17T03:29:35;99518.56;;;10.20;76.74
1077;BME280;64114;48.726;9.370;2023-02-17T03:32:03;99514.16;;;10.13;76.84
1077;BME280;64114;48.726;9.370;2023-02-17T03:34:32;99507.03;;;10.43;76.39
1077;BME280;64114;48.726;9.370;2023-02-17T03:37:01;99515.03;;;10.58;74.83
1077;BME280;64114;48.726;9.370;2023-02-17T03:39:29;99513.44;;;10.20;76.80
1077;BME280;64114;48.726;9.370;2023-02-17T03:41:57;99516.25;;;10.33;74.80
1077;BME280;64114;48.726;9.370;2023-02-17T03:44:24;99520.38;;;10.24;74.82
1077;BME280;64114;48.726;9.370;2023-02-17T03:46:52;99513.50;;;10.23;74.33
1077;BME280;64114;48.726;9.370;2023-02-17T03:49:20;99511.78;;;10.24;75.23
1077;BME280;64114;48.726;9.370;2023-02-17T03:51:48;99511.91;;;10.29;75.26
1077;BME280;64114;48.726;9.370;2023-02-17T03:54:18;99514.78;;;10.46;74.33
1077;BME280;64114;48.726;9.370;2023-02-17T03:56:46;99521.38;;;10.34;75.38
1077;BME280;64114;48.726;9.370;2023-02-17T03:59:14;99516.91;;;10.22;76.29
1077;BME280;64114;48.726;9.370;2023-02-17T04:01:42;99521.22;;;10.25;76.55
1077;BME280;64114;48.726;9.370;2023-02-17T04:04:10;99519.41;;;10.21;77.46
1077;BME280;64114;48.726;9.370;2023-02-17T04:06:38;99529.66;;;10.19;76.02
1077;BME280;64114;48.726;9.370;2023-02-17T04:09:06;99518.88;;;9.93;77.56
1077;BME280;64114;48.726;9.370;2023-02-17T04:11:35;99532.88;;;10.10;78.11
1077;BME280;64114;48.726;9.370;2023-02-17T04:14:03;99527.88;;;10.15;79.52
1077;BME280;64114;48.726;9.370;2023-02-17T04:16:31;99526.09;;;10.13;79.01
1077;BME280;64114;48.726;9.370;2023-02-17T04:18:59;99524.91;;;10.39;76.23
1077;BME280;64114;48.726;9.370;2023-02-17T04:21:27;99527.63;;;10.04;78.69
1077;BME280;64114;48.726;9.370;2023-02-17T04:23:54;99532.41;;;9.86;80.70
1077;BME280;64114;48.726;9.370;2023-02-17T04:26:22;99536.91;;;9.98;78.96
1077;BME280;64114;48.726;9.370;2023-02-17T04:28:52;99539.41;;;9.94;79.70
1077;BME280;64114;48.726;9.370;2023-02-17T04:31:19;99533.75;;;10.11;77.38
1077;BME280;64114;48.726;9.370;2023-02-17T04:33:48;99543.06;;;10.07;78.23
1077;BME280;64114;48.726;9.370;2023-02-17T04:36:16;99533.50;;;9.99;79.60
1077;BME280;64114;48.726;9.370;2023-02-17T04:38:44;99522.22;;;9.90;80.04
1077;BME280;64114;48.726;9.370;2023-02-17T04:41:11;99532.41;;;9.86;82.18
1077;BME280;64114;48.726;9.370;2023-02-17T04:43:39;99529.06;;;9.90;83.16
1077;BME280;64114;48.726;9.370;2023-02-17T04:46:08;99527.00;;;9.73;84.68
1077;BME280;64114;48.726;9.370;2023-02-17T04:48:37;99520.06;;;10.09;82.03
1077;BME280;64114;48.726;9.370;2023-02-17T04:51:05;99517.06;;;9.49;81.82
1077;BME280;64114;48.726;9.370;2023-02-17T04:53:33;99525.38;;;9.39;82.65
1077;BME280;64114;48.726;9.370;2023-02-17T04:56:01;99525.34;;;9.37;83.68
1077;BME280;64114;48.726;9.370;2023-02-17T04:58:30;99528.88;;;9.42;83.98
1077;BME280;64114;48.726;9.370;2023-02-17T05:00:58;99523.22;;;9.57;83.50
1077;BME280;64114;48.726;9.370;2023-02-17T05:03:28;99523.69;;;9.41;84.97
1077;BME280;64114;48.726;9.370;2023-02-17T05:05:56;99513.47;;;9.41;85.66
1077;BME280;64114;48.726;9.370;2023-02-17T05:08:24;99505.09;;;9.48;85.85
1077;BME280;64114;48.726;9.370;2023-02-17T05:10:52;99502.59;;;9.51;85.65
1077;BME280;64114;48.726;9.370;2023-02-17T05:13:20;99512.84;;;9.51;86.60
1077;BME280;64114;48.726;9.370;2023-02-17T05:15:48;99505.91;;;9.85;84.86
1077;BME280;64114;48.726;9.370;2023-02-17T05:18:16;99502.09;;;9.66;86.40
1077;BME280;64114;48.726;9.370;2023-02-17T05:20:46;99500.81;;;9.47;88.13
1077;BME280;64114;48.726;9.370;2023-02-17T05:23:14;99509.72;;;9.64;87.45
1077;BME280;64114;48.726;9.370;2023-02-17T05:25:42;99512.16;;;9.58;87.92
1077;BME280;64114;48.726;9.370;2023-02-17T05:28:10;99504.13;;;9.41;88.44
1077;BME280;64114;48.726;9.370;2023-02-17T05:30:38;99507.72;;;9.49;86.68
1077;BME280;64114;48.726;9.370;2023-02-17T05:33:06;99506.81;;;9.47;87.34
1077;BME280;64114;48.726;9.370;2023-02-17T05:35:34;99505.97;;;9.48;87.63
1077;BME280;64114;48.726;9.370;2023-02-17T05:38:04;99516.09;;;9.44;88.97
1077;BME280;64114;48.726;9.370;2023-02-17T05:40:32;99505.78;;;9.39;88.83
1077;BME280;64114;48.726;9.370;2023-02-17T05:43:00;99515.53;;;9.57;88.20
1077;BME280;64114;48.726;9.370;2023-02-17T05:45:28;99508.59;;;9.51;89.41
1077;BME280;64114;48.726;9.370;2023-02-17T05:47:56;99508.88;;;9.64;88.77
1077;BME280;64114;48.726;9.370;2023-02-17T05:50:24;99505.50;;;9.66;88.14
1077;BME280;64114;48.726;9.370;2023-02-17T05:52:52;99514.22;;;9.75;87.91
1077;BME280;64114;48.726;9.370;2023-02-17T05:55:21;99513.53;;;9.82;87.01
1077;BME280;64114;48.726;9.370;2023-02-17T05:57:49;99512.53;;;9.75;88.22
1077;BME280;64114;48.726;9.370;2023-02-17T06:00:17;99518.91;;;9.96;87.13
1077;BME280;64114;48.726;9.370;2023-02-17T06:02:45;99523.91;;;9.88;86.86
1077;BME280;64114;48.726;9.370;2023-02-17T06:05:14;99524.41;;;10.13;85.20
1077;BME280;64114;48.726;9.370;2023-02-17T06:07:41;99527.34;;;9.90;85.14
1077;BME280;64114;48.726;9.370;2023-02-17T06:10:09;99524.16;;;10.01;84.96
1077;BME280;64114;48.726;9.370;2023-02-17T06:12:39;99535.38;;;10.07;84.76
1077;BME280;64114;48.726;9.370;2023-02-17T06:15:07;99537.28;;;10.16;83.52
1077;BME280;64114;48.726;9.370;2023-02-17T06:17:35;99540.63;;;10.14;83.16
1077;BME280;64114;48.726;9.370;2023-02-17T06:20:04;99541.88;;;10.33;82.25
1077;BME280;64114;48.726;9.370;2023-02-17T06:22:32;99546.06;;;10.29;82.53
1077;BME280;64114;48.726;9.370;2023-02-17T06:25:00;99541.06;;;10.35;82.12
1077;BME280;64114;48.726;9.370;2023-02-17T06:27:28;99545.88;;;10.20;83.01
1077;BME280;64114;48.726;9.370;2023-02-17T06:29:58;99550.94;;;10.15;83.70
1077;BME280;64114;48.726;9.370;2023-02-17T06:32:26;99547.47;;;10.13;84.34
1077;BME280;64114;48.726;9.370;2023-02-17T06:34:54;99550.75;;;10.07;85.87
1077;BME280;64114;48.726;9.370;2023-02-17T06:37:22;99555.22;;;10.16;84.81
1077;BME280;64114;48.726;9.370;2023-02-17T06:39:50;99554.47;;;10.22;82.74
1077;BME280;64114;48.726;9.370;2023-02-17T06:42:18;99556.19;;;10.21;83.67
1077;BME280;64114;48.726;9.370;2023-02-17T06:44:46;99556.13;;;10.18;84.73
1077;BME280;64114;48.726;9.370;2023-02-17T06:47:16;99566.50;;;10.26;85.62
1077;BME280;64114;48.726;9.370;2023-02-17T06:49:44;99565.41;;;10.13;87.62
1077;BME280;64114;48.726;9.370;2023-02-17T06:52:12;99556.38;;;10.31;85.10
1077;BME280;64114;48.726;9.370;2023-02-17T06:54:39;99573.88;;;10.10;84.57
1077;BME280;64114;48.726;9.370;2023-02-17T06:57:07;99567.44;;;10.30;84.77
1077;BME280;64114;48.726;9.370;2023-02-17T06:59:35;99563.41;;;10.41;84.30
1077;BME280;64114;48.726;9.370;2023-02-17T07:02:03;99572.06;;;10.06;85.88
1077;BME280;64114;48.726;9.370;2023-02-17T07:04:33;99572.00;;;10.03;85.91
1077;BME280;64114;48.726;9.370;2023-02-17T07:07:01;99570.91;;;9.90;85.97
1077;BME280;64114;48.726;9.370;2023-02-17T07:09:29;99569.22;;;9.91;86.48
1077;BME280;64114;48.726;9.370;2023-02-17T07:11:57;99576.13;;;9.95;87.14
1077;BME280;64114;48.726;9.370;2023-02-17T07:14:26;99579.81;;;10.09;86.18
1077;BME280;64114;48.726;9.370;2023-02-17T07:16:54;99579.56;;;9.97;86.45
1077;BME280;64114;48.726;9.370;2023-02-17T07:19:22;99581.94;;;10.28;85.33
1077;BME280;64114;48.726;9.370;2023-02-17T07:21:51;99584.22;;;10.15;85.90
1077;BME280;64114;48.726;9.370;2023-02-17T07:24:19;99579.56;;;10.37;84.64
1077;BME280;64114;48.726;9.370;2023-02-17T07:26:47;99580.25;;;10.30;85.73
1077;BME280;64114;48.726;9.370;2023-02-17T07:29:16;99582.00;;;10.32;85.37
1077;BME280;64114;48.726;9.370;2023-02-17T07:31:43;99587.97;;;10.31;85.70
1077;BME280;64114;48.726;9.370;2023-02-17T07:34:11;99588.72;;;10.27;86.78
1077;BME280;64114;48.726;9.370;2023-02-17T07:36:39;99588.78;;;10.29;87.24
1077;BME280;64114;48.726;9.370;2023-02-17T07:39:08;99593.22;;;10.37;86.60
1077;BME280;64114;48.726;9.370;2023-02-17T07:41:36;99589.94;;;10.45;86.82
1077;BME280;64114;48.726;9.370;2023-02-17T07:44:08;99565.84;;;10.36;87.08
1077;BME280;64114;48.726;9.370;2023-02-17T07:46:37;99592.13;;;10.67;86.58
1077;BME280;64114;48.726;9.370;2023-02-17T07:49:07;99586.28;;;10.75;84.64
1077;BME280;64114;48.726;9.370;2023-02-17T07:51:35;99574.75;;;10.98;84.03
1077;BME280;64114;48.726;9.370;2023-02-17T07:54:03;99579.41;;;11.21;83.35
1077;BME280;64114;48.726;9.370;2023-02-17T07:56:32;99582.97;;;11.30;82.46
1077;BME280;64114;48.726;9.370;2023-02-17T07:59:00;99595.97;;;11.40;80.82
1077;BME280;64114;48.726;9.370;2023-02-17T08:01:28;99593.78;;;11.11;80.91
1077;BME280;64114;48.726;9.370;2023-02-17T08:03:56;99592.28;;;11.23;81.15
1077;BME280;64114;48.726;9.370;2023-02-17T08:06:25;99595.31;;;11.52;79.43
1077;BME280;64114;48.726;9.370;2023-02-17T08:08:54;99596.44;;;11.70;79.17
1077;BME280;64114;48.726;9.370;2023-02-17T08:11:41;99594.50;;;11.56;78.66
1077;BME280;64114;48.726;9.370;2023-02-17T08:14:28;99601.63;;;11.73;78.60
1077;BME280;64114;48.726;9.370;2023-02-17T08:16:57;99601.63;;;11.75;78.07
1077;BME280;64114;48.726;9.370;2023-02-17T08:19:25;99602.59;;;11.81;78.17
1077;BME280;64114;48.726;9.370;2023-02-17T08:22:12;99603.69;;;11.99;77.73
1077;BME280;64114;48.726;9.370;2023-02-17T08:24:40;99598.59;;;12.02;78.06
1077;BME280;64114;48.726;9.370;2023-02-17T08:27:09;99596.28;;;12.21;77.60
1077;BME280;64114;48.726;9.370;2023-02-17T08:29:37;99596.59;;;12.42;76.78
1077;BME280;64114;48.726;9.370;2023-02-17T08:32:05;99599.13;;;12.41;77.12
1077;BME280;64114;48.726;9.370;2023-02-17T08:34:33;99597.69;;;12.65;76.02
1077;BME280;64114;48.726;9.370;2023-02-17T08:37:03;99601.06;;;12.59;76.28
1077;BME280;64114;48.726;9.370;2023-02-17T08:39:32;99605.66;;;12.91;76.47
1077;BME280;64114;48.726;9.370;2023-02-17T08:42:01;99608.34;;;13.00;76.26
1077;BME280;64114;48.726;9.370;2023-02-17T08:44:32;99598.88;;;12.99;76.25
1077;BME280;64114;48.726;9.370;2023-02-17T08:47:03;99598.97;;;13.09;75.68
1077;BME280;64114;48.726;9.370;2023-02-17T08:49:32;99602.34;;;13.01;75.93
1077;BME280;64114;48.726;9.370;2023-02-17T08:52:01;99600.53;;;12.89;76.83
1077;BME280;64114;48.726;9.370;2023-02-17T08:54:28;99592.72;;;12.85;76.98
1077;BME280;64114;48.726;9.370;2023-02-17T08:56:57;99604.06;;;13.01;77.21
1077;BME280;64114;48.726;9.370;2023-02-17T08:59:25;99599.66;;;12.92;77.30
1077;BME280;64114;48.726;9.370;2023-02-17T09:01:54;99559.88;;;12.57;79.19
1077;BME280;64114;48.726;9.370;2023-02-17T09:04:23;99610.88;;;12.97;78.14
1077;BME280;64114;48.726;9.370;2023-02-17T09:06:52;99598.97;;;13.07;77.85
1077;BME280;64114;48.726;9.370;2023-02-17T09:09:23;99608.44;;;13.11;77.11
1077;BME280;64114;48.726;9.370;2023-02-17T09:11:54;99603.19;;;12.99;78.10
1077;BME280;64114;48.726;9.370;2023-02-17T09:14:22;99600.78;;;13.19;77.70
1077;BME280;64114;48.726;9.370;2023-02-17T09:16:52;99600.50;;;12.91;78.45
1077;BME280;64114;48.726;9.370;2023-02-17T09:19:22;99603.81;;;12.76;79.14
1077;BME280;64114;48.726;9.370;2023-02-17T09:21:51;99612.38;;;12.77;79.87
1077;BME280;64114;48.726;9.370;2023-02-17T09:24:19;99598.69;;;12.79;79.96
1077;BME280;64114;48.726;9.370;2023-02-17T09:26:47;99595.22;;;12.74;79.67
1077;BME280;64114;48.726;9.370;2023-02-17T09:29:15;99599.47;;;12.72;79.87
1077;BME280;64114;48.726;9.370;2023-02-17T09:31:43;99608.09;;;12.79;79.55
1077;BME280;64114;48.726;9.370;2023-02-17T09:34:13;99607.13;;;12.67;81.02
1077;BME280;64114;48.726;9.370;2023-02-17T09:36:42;99602.94;;;12.74;80.29
1077;BME280;64114;48.726;9.370;2023-02-17T09:39:11;99602.97;;;12.77;80.95
1077;BME280;64114;48.726;9.370;2023-02-17T09:41:42;99605.53;;;12.79;80.85
1077;BME280;64114;48.726;9.370;2023-02-17T09:44:18;99609.00;;;12.79;80.83
1077;BME280;64114;48.726;9.370;2023-02-17T09:46:53;99609.72;;;12.70;81.67
1077;BME280;64114;48.726;9.370;2023-02-17T09:49:32;99614.00;;;12.67;81.73
1077;BME280;64114;48.726;9.370;2023-02-17T09:52:07;99609.72;;;12.69;81.62
1077;BME280;64114;48.726;9.370;2023-02-17T09:54:42;99612.28;;;12.67;81.80
1077;BME280;64114;48.726;9.370;2023-02-17T09:57:13;99615.78;;;12.75;81.76
1077;BME280;64114;48.726;9.370;2023-02-17T09:59:48;99615.00;;;12.81;81.22
1077;BME280;64114;48.726;9.370;2023-02-17T10:02:24;99607.34;;;12.89;81.06
1077;BME280;64114;48.726;9.370;2023-02-17T10:04:54;99618.53;;;12.89;81.23
1077;BME280;64114;48.726;9.370;2023-02-17T10:07:27;99626.31;;;12.96;80.89
1077;BME280;64114;48.726;9.370;2023-02-17T10:09:57;99623.72;;;12.94;81.17
1077;BME280;64114;48.726;9.370;2023-02-17T10:12:31;99629.75;;;12.95;81.52
1077;BME280;64114;48.726;9.370;2023-02-17T10:15:06;99626.34;;;13.00;80.65
1077;BME280;64114;48.726;9.370;2023-02-17T10:17:43;99631.47;;;12.97;80.76
1077;BME280;64114;48.726;9.370;2023-02-17T10:20:14;99625.59;;;13.09;81.19
1077;BME280;64114;48.726;9.370;2023-02-17T10:22:50;99620.63;;;13.28;80.20
1077;BME280;64114;48.726;9.370;2023-02-17T10:25:23;99621.47;;;13.28;80.39
1077;BME280;64114;48.726;9.370;2023-02-17T10:28:03;99641.34;;;13.45;79.40
1077;BME280;64114;48.726;9.370;2023-02-17T10:30:39;99607.84;;;13.40;79.40
1077;BME280;64114;48.726;9.370;2023-02-17T10:33:13;99612.19;;;13.44;79.40
1077;BME280;64114;48.726;9.370;2023-02-17T10:35:49;99624.31;;;13.59;79.41
1077;BME280;64114;48.726;9.370;2023-02-17T10:38:29;99618.31;;;13.62;79.66
1077;BME280;64114;48.726;9.370;2023-02-17T10:41:00;99617.50;;;13.71;79.86
1077;BME280;64114;48.726;9.370;2023-02-17T10:43:31;99622.75;;;13.78;79.59
1077;BME280;64114;48.726;9.370;2023-02-17T10:46:03;99623.63;;;13.84;78.79
1077;BME280;64114;48.726;9.370;2023-02-17T10:48:35;99605.72;;;14.01;77.83
1077;BME280;64114;48.726;9.370;2023-02-17T10:51:06;99611.81;;;14.15;77.64
1077;BME280;64114;48.726;9.370;2023-02-17T10:53:37;99604.06;;;14.14;77.94
1077;BME280;64114;48.726;9.370;2023-02-17T10:56:08;99602.44;;;14.33;77.84
1077;BME280;64114;48.726;9.370;2023-02-17T10:58:48;99603.34;;;14.46;76.87
1077;BME280;64114;48.726;9.370;2023-02-17T11:01:17;99600.75;;;14.46;76.55
1077;BME280;64114;48.726;9.370;2023-02-17T11:03:45;99598.19;;;14.46;76.83
1077;BME280;64114;48.726;9.370;2023-02-17T11:06:16;99591.28;;;14.42;77.05
1077;BME280;64114;48.726;9.370;2023-02-17T11:08:49;99597.31;;;14.39;77.03
1077;BME280;64114;48.726;9.370;2023-02-17T11:11:21;99588.75;;;14.46;76.54
1077;BME280;64114;48.726;9.370;2023-02-17T11:14:08;99600.75;;;14.43;77.16
1077;BME280;64114;48.726;9.370;2023-02-17T11:16:38;99602.44;;;14.33;77.05
1077;BME280;64114;48.726;9.370;2023-02-17T11:19:20;99595.53;;;14.30;77.60
1077;BME280;64114;48.726;9.370;2023-02-17T11:21:49;99596.34;;;14.18;78.35
1077;BME280;64114;48.726;9.370;2023-02-17T11:24:19;99567.97;;;14.20;76.91
1077;BME280;64114;48.726;9.370;2023-02-17T11:26:55;99578.44;;;14.56;76.66
1077;BME280;64114;48.726;9.370;2023-02-17T11:29:24;99581.94;;;14.81;75.85
